Map

Track Data

SID SEASON NUMBER BASIN SUBBASIN NAME ISO_TIME NATURE LAT LON WMO_WIND WMO_PRES WMO_AGENCY TRACK_TYPE DIST2LAND LANDFALL IFLAG USA_AGENCY USA_ATCF_ID USA_LAT USA_LON USA_RECORD USA_STATUS USA_WIND USA_PRES USA_SSHS USA_R34_NE USA_R34_SE USA_R34_SW USA_R34_NW USA_R50_NE USA_R50_SE USA_R50_SW USA_R50_NW USA_R64_NE USA_R64_SE USA_R64_SW USA_R64_NW USA_POCI USA_ROCI USA_RMW USA_EYE TOKYO_LAT TOKYO_LON TOKYO_GRADE TOKYO_WIND TOKYO_PRES TOKYO_R50_DIR TOKYO_R50_LONG TOKYO_R50_SHORT TOKYO_R30_DIR TOKYO_R30_LONG TOKYO_R30_SHORT TOKYO_LAND CMA_LAT CMA_LON CMA_CAT CMA_WIND CMA_PRES HKO_LAT HKO_LON HKO_CAT HKO_WIND HKO_PRES NEWDELHI_LAT NEWDELHI_LON NEWDELHI_GRADE NEWDELHI_WIND NEWDELHI_PRES NEWDELHI_CI NEWDELHI_DP NEWDELHI_POCI REUNION_LAT REUNION_LON REUNION_TYPE REUNION_WIND REUNION_PRES REUNION_TNUM REUNION_CI REUNION_RMW REUNION_R34_NE REUNION_R34_SE REUNION_R34_SW REUNION_R34_NW REUNION_R50_NE REUNION_R50_SE REUNION_R50_SW REUNION_R50_NW REUNION_R64_NE REUNION_R64_SE REUNION_R64_SW REUNION_R64_NW BOM_LAT BOM_LON BOM_TYPE BOM_WIND BOM_PRES BOM_TNUM BOM_CI BOM_RMW BOM_R34_NE BOM_R34_SE BOM_R34_SW BOM_R34_NW BOM_R50_NE BOM_R50_SE BOM_R50_SW BOM_R50_NW BOM_R64_NE BOM_R64_SE BOM_R64_SW BOM_R64_NW BOM_ROCI BOM_POCI BOM_EYE BOM_POS_METHOD BOM_PRES_METHOD NADI_LAT NADI_LON NADI_CAT NADI_WIND NADI_PRES WELLINGTON_LAT WELLINGTON_LON WELLINGTON_WIND WELLINGTON_PRES DS824_LAT DS824_LON DS824_STAGE DS824_WIND DS824_PRES TD9636_LAT TD9636_LON TD9636_STAGE TD9636_WIND TD9636_PRES TD9635_LAT TD9635_LON TD9635_WIND TD9635_PRES TD9635_ROCI NEUMANN_LAT NEUMANN_LON NEUMANN_CLASS NEUMANN_WIND NEUMANN_PRES MLC_LAT MLC_LON MLC_CLASS MLC_WIND MLC_PRES USA_GUST BOM_GUST BOM_GUST_PER REUNION_GUST REUNION_GUST_PER USA_SEAHGT USA_SEARAD_NE USA_SEARAD_SE USA_SEARAD_SW USA_SEARAD_NW STORM_SPEED STORM_DIR
1974150N22089 1974 40 NI BB NOT_NAMED 1974-05-29 12:00:00 TS 21.6000 88.5000 main 0 0 O________OO___ jtwc_io IO031974 21.6000 88.5000 -1 21.6000 88.5000 TC 25 21.6000 88.5000 1 1 43
1974150N22089 1974 40 NI BB NOT_NAMED 1974-05-29 15:00:00 TS 21.6500 88.5515 main 10 10 P________PP___ IO031974 21.6500 88.5500 -1 21.6500 88.5500 TC 25 21.6500 88.5546 1 1 43
1974150N22089 1974 40 NI BB NOT_NAMED 1974-05-29 18:00:00 TS 21.7000 88.6025 main 10 10 O________OP___ jtwc_io IO031974 21.7000 88.6000 -1 21.7000 88.6000 TC 25 21.7000 88.6074 1 1 43
1974150N22089 1974 40 NI BB NOT_NAMED 1974-05-29 21:00:00 TS 21.7500 88.6522 main 10 10 P________PP___ IO031974 21.7500 88.6500 -1 21.7500 88.6500 TC 25 21.7500 88.6565 1 1 40
1974150N22089 1974 40 NI BB NOT_NAMED 1974-05-30 00:00:00 TS 21.8000 88.7000 main 10 10 O________OO___ jtwc_io IO031974 21.8000 88.7000 -1 21.8000 88.7000 TC 25 21.8000 88.7000 1 1 43
1974150N22089 1974 40 NI BB NOT_NAMED 1974-05-30 03:00:00 TS 21.8455 88.7460 main 10 0 P________PP___ IO031974 21.8425 88.7500 -1 21.8425 88.7500 TC 25 21.8515 88.7379 1 1 41
1974150N22089 1974 40 NI BB NOT_NAMED 1974-05-30 06:00:00 TS 21.9041 88.7926 main 0 0 O________OP___ jtwc_io IO031974 21.9000 88.8000 -1 21.9000 88.8000 TC 25 21.9124 88.7777 1 2 32
1974150N22089 1974 40 NI BB NOT_NAMED 1974-05-30 09:00:00 TS 21.9874 88.8379 main 0 0 P________PP___ IO031974 21.9850 88.8425 -1 21.9850 88.8425 TC 30 21.9921 88.8286 1 2 27
1974150N22089 1974 40 NI BB NOT_NAMED 1974-05-30 12:00:00 TS 22.1000 88.9000 main 0 0 O________OO___ jtwc_io IO031974 22.1000 88.9000 -1 22.1000 88.9000 TC 35 22.1000 88.9000 2 3 29
1974150N22089 1974 40 NI BB NOT_NAMED 1974-05-30 15:00:00 TS 22.2455 88.9938 main 0 0 P________PP___ IO031974 22.2350 88.9850 -1 22.2350 88.9850 TC 35 22.2666 89.0113 2 4 32
1974150N22089 1974 40 NI BB NOT_NAMED 1974-05-30 18:00:00 TS 22.4192 89.1140 main 0 0 O________OP___ jtwc_io IO031974 22.4000 89.1000 -1 22.4000 89.1000 TC 35 22.4576 89.1421 2 5 33
1974150N22089 1974 40 NI BB NOT_NAMED 1974-05-30 21:00:00 TS 22.6249 89.2639 main 0 0 P________PP___ IO031974 22.6150 89.2574 -1 22.6150 89.2574 TC 35 22.6448 89.2769 2 5 35
1974150N22089 1974 40 NI BB NOT_NAMED 1974-05-31 00:00:00 TS 22.8000 89.4000 main 0 0 O________OO___ jtwc_io IO031974 22.8000 89.4000 -1 22.8000 89.4000 TC 35 22.8000 89.4000 2 3 36
1974150N22089 1974 40 NI BB NOT_NAMED 1974-05-31 03:00:00 TS 22.8633 89.4576 main 0 0 P________PP___ IO031974 22.8725 89.4576 -1 22.8725 89.4576 TC 35 22.8451 89.4576 2 1 48
1974150N22089 1974 40 NI BB NOT_NAMED 1974-05-31 06:00:00 TS 22.8874 89.5020 main 0 0 O________OP___ jtwc_io IO031974 22.9000 89.5000 -1 22.9000 89.5000 TC 35 22.8621 89.5061 2 1 67
1974150N22089 1974 40 NI BB NOT_NAMED 1974-05-31 09:00:00 TS 22.9127 89.5773 main 0 0 P________PP___ IO031974 22.9200 89.5776 -1 22.9200 89.5776 TC 35 22.8981 89.5765 2 2 58
1974150N22089 1974 40 NI BB NOT_NAMED 1974-05-31 12:00:00 TS 23.0000 89.7000 main 0 0 O________OO___ jtwc_io IO031974 23.0000 89.7000 -1 23.0000 89.7000 TC 35 23.0000 89.7000 2 4 43
1974150N22089 1974 40 NI BB NOT_NAMED 1974-05-31 15:00:00 TS 23.2040 89.8748 main 0 0 P________PP___ IO031974 23.2049 89.8626 -1 23.2049 89.8626 TC 30 23.2021 89.8992 2 6 38
1974150N22089 1974 40 NI BB NOT_NAMED 1974-05-31 18:00:00 TS 23.4961 90.1209 main 0 0 O________OP___ jtwc_io IO031974 23.5000 90.1000 -1 23.5000 90.1000 TC 25 23.4884 90.1627 2 8 39
1974150N22089 1974 40 NI BB NOT_NAMED 1974-05-31 21:00:00 TS 23.8370 90.4396 main 0 0 P________PP___ IO031974 23.8402 90.4245 -1 23.8402 90.4245 TC 25 23.8305 90.4698 2 9 41
1974150N22089 1974 40 NI BB NOT_NAMED 1974-06-01 00:00:00 TS 24.2000 90.8000 main 0 O________OO___ jtwc_io IO031974 24.2000 90.8000 -1 24.2000 90.8000 TC 25 24.2000 90.8000 6 10 42

About IBTrACS Database

This database is a web-friendly format of International Best Track Archive for Climate Stewardship (IBTrACS), a global best track data archive curated by NOAA dating back to 1842.

Updated: 2021-10-21